fecha-hora | temperatura | viento dirección-velocidad-rachas | humedad | presión

  • 08-07-2020 08:00:00 | 24.30°C | Norte-11.00 km/h - 26.00 km/h | 36.00% | 948.30 hPa
  • 08-07-2020 06:00:00 | 23.90°C | Este-7.00 km/h - 21.00 km/h | 36.00% | 947.80 hPa
  • 08-07-2020 05:00:00 | 23.70°C | Norte-7.00 km/h - 15.00 km/h | 34.00% | 947.60 hPa
  • 08-07-2020 04:00:00 | 24.20°C | Norte-9.00 km/h - 13.00 km/h | 33.00% | 947.40 hPa
  • 08-07-2020 03:00:00 | 25.70°C | Nordeste-4.00 km/h - 15.00 km/h | 29.00% | 947.40 hPa
  • 08-07-2020 02:00:00 | 25.80°C | Nordeste-5.00 km/h - 13.00 km/h | 26.00% | 947.50 hPa
  • 08-07-2020 01:00:00 | 28.20°C | Norte-5.00 km/h - 11.00 km/h | 22.00% | 947.50 hPa
  • 08-07-2020 00:00:00 | 32.40°C | Oeste-13.00 km/h - 22.00 km/h | 18.00% | 947.10 hPa
  • 07-07-2020 23:00:00 | 33.30°C | Oeste-17.00 km/h - 28.00 km/h | 17.00% | 946.90 hPa
  • 07-07-2020 22:00:00 | 35.00°C | Sudoeste-21.00 km/h - 33.00 km/h | 15.00% | 946.20 hPa
  • 07-07-2020 21:00:00 | 36.90°C | Sudoeste-23.00 km/h - 33.00 km/h | 13.00% | 945.90 hPa
  • 07-07-2020 20:00:00 | 38.40°C | Sur-13.00 km/h - 28.00 km/h | 13.00% | 945.70 hPa
  • 07-07-2020 19:00:00 | 39.00°C | Oeste-19.00 km/h - 33.00 km/h | 15.00% | 945.80 hPa
  • 07-07-2020 18:00:00 | 39.00°C | Sudoeste-17.00 km/h - 28.00 km/h | 14.00% | 946.00 hPa
  • 07-07-2020 17:00:00 | 38.60°C | Sudoeste-18.00 km/h - 33.00 km/h | 15.00% | 946.90 hPa
  • 07-07-2020 16:00:00 | 38.20°C | Sudoeste-15.00 km/h - 32.00 km/h | 15.00% | 947.60 hPa
  • 07-07-2020 14:00:00 | 35.60°C | Oeste-8.00 km/h - 17.00 km/h | 20.00% | 948.70 hPa
  • 07-07-2020 14:00:00 | 35.60°C | Oeste-8.00 km/h - 17.00 km/h | 20.00% | 948.70 hPa
  • 07-07-2020 13:00:00 | 34.60°C | Sur-5.00 km/h - 13.00 km/h | 18.00% | 949.20 hPa
  • 07-07-2020 12:00:00 | 32.10°C | Norte-3.00 km/h - 11.00 km/h | 17.00% | 949.70 hPa
  • 07-07-2020 11:00:00 | 29.70°C | Norte-5.00 km/h - 15.00 km/h | 17.00% | 950.00 hPa
  • 07-07-2020 10:00:00 | 26.20°C | Norte-8.00 km/h - 13.00 km/h | 20.00% | 950.20 hPa
  • 07-07-2020 09:00:00 | 23.60°C | Norte-8.00 km/h - 17.00 km/h | 24.00% | 950.20 hPa
  • 07-07-2020 08:00:00 | 20.90°C | Norte-12.00 km/h - 18.00 km/h | 35.00% | 950.30 hPa
    • diseño web asturias Información sobre el estado de las mareas, altura de la marejada, temperatura del agua y otros datos de Gijón en Asturias.

      Surf Gijón